createdAt,value
2023-12-28T00:03:21.786Z,99171.66
2023-12-28T00:08:25.980Z,99162.31
2023-12-28T00:13:28.099Z,99159.13
2023-12-28T00:18:30.040Z,99147.55
2023-12-28T00:23:32.279Z,99137.38
2023-12-28T00:28:40.405Z,99143.62
2023-12-28T00:33:42.587Z,99137.73
2023-12-28T00:38:44.720Z,99131.14
2023-12-28T00:43:46.802Z,99127.10
2023-12-28T00:48:49.331Z,99130.04
2023-12-28T00:53:51.867Z,99126.11
2023-12-28T00:58:54.013Z,99127.60
2023-12-28T01:03:56.093Z,99127.98
2023-12-28T01:08:58.193Z,99120.39
2023-12-28T01:14:00.554Z,99128.20
2023-12-28T01:19:03.325Z,99135.71
2023-12-28T01:24:05.660Z,99128.75
2023-12-28T01:29:07.812Z,99134.98
2023-12-28T01:34:10.705Z,99128.40
2023-12-28T01:39:12.980Z,99122.52
2023-12-28T01:44:15.784Z,99118.67
2023-12-28T01:49:18.471Z,99119.30
2023-12-28T01:54:20.789Z,99107.19
2023-12-28T01:59:23.396Z,99085.88
2023-12-28T02:04:29.844Z,99073.40
2023-12-28T02:09:32.320Z,99067.13
2023-12-28T02:14:34.441Z,99072.77
2023-12-28T02:19:44.735Z,99089.08
2023-12-28T02:25:12.708Z,99090.18
2023-12-28T02:30:17.417Z,99084.55
2023-12-28T02:35:25.721Z,99070.51
2023-12-28T02:40:28.801Z,99057.80
2023-12-28T02:45:30.729Z,99056.52
2023-12-28T02:50:34.322Z,99044.86
2023-12-28T02:55:36.397Z,99034.11
2023-12-28T03:00:38.901Z,99032.04
2023-12-28T03:05:41.155Z,99030.52
2023-12-28T03:10:43.888Z,99022.34
2023-12-28T03:15:46.102Z,99024.31
2023-12-28T03:20:48.200Z,99020.62
2023-12-28T03:25:50.184Z,99028.23
2023-12-28T03:30:52.941Z,99016.16
2023-12-28T03:35:55.466Z,99015.54
2023-12-28T03:40:57.676Z,99009.67
2023-12-28T03:45:59.602Z,99003.02
2023-12-28T03:51:01.563Z,99015.46
2023-12-28T03:56:04.063Z,99025.61
2023-12-28T04:01:06.097Z,99019.48
2023-12-28T04:06:08.826Z,99023.70
2023-12-28T04:11:11.405Z,99041.00
2023-12-28T04:16:16.649Z,99046.02
2023-12-28T04:21:18.805Z,99043.46
2023-12-28T04:26:23.745Z,99038.34
2023-12-28T04:31:26.195Z,99021.81
2023-12-28T04:36:29.070Z,99015.02
2023-12-28T04:41:31.407Z,99002.88
2023-12-28T04:46:33.407Z,99007.25
2023-12-28T04:51:35.748Z,98997.25
2023-12-28T04:56:37.816Z,98989.59
2023-12-28T05:01:44.003Z,98982.84
2023-12-28T05:06:46.060Z,99011.04
2023-12-28T05:11:49.523Z,99025.27
2023-12-28T05:16:51.906Z,99035.09
2023-12-28T05:21:54.055Z,99026.63
2023-12-28T05:26:56.311Z,99004.23
2023-12-28T05:31:58.335Z,98977.13
2023-12-28T05:37:00.522Z,98979.33
2023-12-28T05:42:02.919Z,98993.42
2023-12-28T05:47:05.208Z,98989.21
2023-12-28T05:52:07.112Z,98995.88
2023-12-28T05:57:09.245Z,98989.81
2023-12-28T06:02:11.362Z,98979.73
2023-12-28T06:07:13.331Z,98956.17
2023-12-28T06:12:16.192Z,98969.19
2023-12-28T06:17:19.659Z,98993.36
2023-12-28T06:22:21.548Z,98974.60
2023-12-28T06:27:24.780Z,98977.19
2023-12-28T06:32:28.643Z,98975.94
2023-12-28T06:37:30.834Z,98963.95
2023-12-28T06:42:32.923Z,98969.98
2023-12-28T06:47:34.896Z,98980.53
2023-12-28T06:52:36.945Z,98985.10
2023-12-28T06:57:38.944Z,98989.62
2023-12-28T07:02:41.075Z,98995.38
2023-12-28T07:07:43.213Z,98990.14
2023-12-28T07:12:45.210Z,98980.48
2023-12-28T07:17:47.333Z,98991.45
2023-12-28T07:22:50.547Z,99000.03
2023-12-28T07:27:53.552Z,99005.94
2023-12-28T07:32:56.072Z,99017.70
2023-12-28T07:37:58.542Z,99026.09
2023-12-28T07:43:02.748Z,99031.41
2023-12-28T07:48:05.665Z,99043.38
2023-12-28T07:53:07.707Z,99048.95
2023-12-28T07:58:09.759Z,99044.39
2023-12-28T08:03:13.361Z,99040.75
2023-12-28T08:08:15.444Z,99035.24
2023-12-28T08:13:19.788Z,99037.26
2023-12-28T08:18:23.443Z,99043.46
2023-12-28T08:23:25.524Z,99051.29
2023-12-28T08:28:27.491Z,99056.77
2023-12-28T08:33:29.576Z,99071.79
2023-12-28T08:38:31.725Z,99090.44
2023-12-28T08:43:33.899Z,99087.80
2023-12-28T08:48:35.984Z,99091.60
2023-12-28T08:53:38.993Z,99088.90
2023-12-28T08:58:40.983Z,99085.77
2023-12-28T09:03:43.085Z,99079.54
2023-12-28T09:08:48.624Z,99065.38
2023-12-28T09:13:50.552Z,99039.52
2023-12-28T09:18:53.066Z,99036.52
2023-12-28T09:23:55.207Z,99036.11
2023-12-28T09:28:57.284Z,99039.87
2023-12-28T09:33:59.526Z,99047.81
2023-12-28T09:39:03.040Z,99031.33
2023-12-28T09:44:15.821Z,99024.80
2023-12-28T09:49:18.485Z,99033.08
2023-12-28T09:54:20.794Z,99021.61
2023-12-28T09:59:23.039Z,99024.23
2023-12-28T10:04:25.819Z,99028.09
2023-12-28T10:09:28.172Z,99027.01
2023-12-28T10:14:30.454Z,99032.98
2023-12-28T10:19:33.317Z,99022.02
2023-12-28T10:24:41.910Z,99016.29
2023-12-28T10:29:43.974Z,99010.17
2023-12-28T10:34:47.594Z,99003.95
2023-12-28T10:39:53.179Z,99003.63
2023-12-28T10:44:59.180Z,98991.04
2023-12-28T10:50:06.731Z,98989.88
2023-12-28T10:55:49.721Z,98984.42
2023-12-28T11:00:59.801Z,98979.88
2023-12-28T11:06:06.316Z,98972.36
2023-12-28T11:11:10.679Z,98984.73
2023-12-28T11:16:14.358Z,98971.67
2023-12-28T11:21:17.642Z,98963.61
2023-12-28T11:26:23.670Z,98951.61
2023-12-28T11:31:27.434Z,98946.84
2023-12-28T11:36:36.781Z,98950.27
2023-12-28T11:41:38.924Z,98941.29
2023-12-28T11:46:42.080Z,98955.26
2023-12-28T11:51:56.006Z,98955.48
2023-12-28T11:56:58.185Z,98955.05
2023-12-28T12:02:00.790Z,98949.21
2023-12-28T12:07:04.889Z,98938.97
2023-12-28T12:12:08.442Z,98947.71
2023-12-28T12:17:10.471Z,98951.25
2023-12-28T12:22:13.879Z,98926.75
2023-12-28T12:27:15.977Z,98936.51
2023-12-28T12:32:17.911Z,98943.91
2023-12-28T12:37:20.207Z,98940.92
2023-12-28T12:42:22.237Z,98938.52
2023-12-28T12:47:24.359Z,98921.89
2023-12-28T12:52:27.400Z,98917.06
2023-12-28T12:57:29.477Z,98928.89
2023-12-28T13:02:32.184Z,98919.01
2023-12-28T13:07:34.317Z,98915.46
2023-12-28T13:12:36.486Z,98910.81
2023-12-28T13:17:38.733Z,98905.70
2023-12-28T13:22:41.031Z,98927.77
2023-12-28T13:27:43.460Z,98932.51
2023-12-28T13:32:45.904Z,98926.13
2023-12-28T13:37:47.845Z,98920.89
2023-12-28T13:42:50.554Z,98920.00
2023-12-28T13:47:52.626Z,98912.20
2023-12-28T13:52:54.665Z,98923.57
2023-12-28T13:57:56.980Z,98938.69
2023-12-28T14:03:00.964Z,98947.64
2023-12-28T14:08:04.837Z,98952.77
2023-12-28T14:13:07.128Z,98940.48
2023-12-28T14:18:10.415Z,98929.63
2023-12-28T14:23:13.680Z,98931.28
2023-12-28T14:28:16.114Z,98945.30
2023-12-28T14:33:18.756Z,98944.38
2023-12-28T14:38:20.841Z,98938.30
2023-12-28T14:43:22.798Z,98937.96
2023-12-28T14:48:25.044Z,98937.86
2023-12-28T14:53:27.210Z,98947.55
2023-12-28T14:58:30.824Z,98951.65
2023-12-28T15:03:33.204Z,98942.65
2023-12-28T15:08:35.320Z,98946.87
2023-12-28T15:13:38.850Z,98951.14
2023-12-28T15:18:41.826Z,98949.20
2023-12-28T15:23:44.330Z,98950.31
2023-12-28T15:28:49.577Z,98949.54
2023-12-28T15:33:51.774Z,98941.62
2023-12-28T15:38:53.912Z,98941.59
2023-12-28T15:43:56.190Z,98942.41
2023-12-28T15:48:58.854Z,98941.11
2023-12-28T15:54:02.518Z,98947.66
2023-12-28T15:59:05.752Z,98952.30
2023-12-28T16:04:08.359Z,98952.48
2023-12-28T16:09:12.352Z,98948.29
2023-12-28T16:14:14.955Z,98942.92
2023-12-28T16:19:17.066Z,98941.24
2023-12-28T16:24:19.379Z,98940.16
2023-12-28T16:29:21.370Z,98940.32
2023-12-28T16:34:23.427Z,98944.07
2023-12-28T16:39:25.978Z,98958.20
2023-12-28T16:44:28.021Z,98965.48
2023-12-28T16:49:30.330Z,98963.50
2023-12-28T16:54:32.484Z,98965.58
2023-12-28T16:59:35.434Z,98963.55
2023-12-28T17:04:37.710Z,98955.57
2023-12-28T17:09:39.710Z,98954.02
2023-12-28T17:14:41.853Z,98953.00
2023-12-28T17:19:44.182Z,98959.65
2023-12-28T17:25:13.723Z,98950.73
2023-12-28T17:30:16.940Z,98935.73
2023-12-28T17:35:19.531Z,98945.22
2023-12-28T17:40:22.182Z,98940.38
2023-12-28T17:45:36.933Z,98928.15
2023-12-28T17:50:40.435Z,98918.69
2023-12-28T17:55:42.633Z,98914.45
2023-12-28T18:00:44.702Z,98914.37
2023-12-28T18:05:56.942Z,98919.25
2023-12-28T18:10:58.944Z,98915.31
2023-12-28T18:16:01.499Z,98910.74
2023-12-28T18:21:04.812Z,98914.88
2023-12-28T18:26:06.817Z,98910.81
2023-12-28T18:31:09.149Z,98895.92
2023-12-28T18:36:12.491Z,98897.23
2023-12-28T18:41:16.459Z,98901.28
2023-12-28T18:46:18.752Z,98903.11
2023-12-28T18:51:23.045Z,98901.13
2023-12-28T18:56:25.305Z,98906.25
2023-12-28T19:01:27.451Z,98908.09
2023-12-28T19:06:32.791Z,98917.02
2023-12-28T19:11:34.933Z,98912.97
2023-12-28T19:16:38.466Z,98907.80
2023-12-28T19:21:41.702Z,98897.90
2023-12-28T19:26:44.441Z,98888.66
2023-12-28T19:31:50.052Z,98898.12
2023-12-28T19:36:52.428Z,98892.57
2023-12-28T19:42:03.325Z,98893.20
2023-12-28T19:47:08.102Z,98899.45
2023-12-28T19:52:12.569Z,98888.91
2023-12-28T19:57:17.834Z,98892.74
2023-12-28T20:02:22.660Z,98905.25
2023-12-28T20:07:25.283Z,98912.55
2023-12-28T20:12:29.312Z,98921.94
2023-12-28T20:17:31.777Z,98928.96
2023-12-28T20:22:36.138Z,98929.36
2023-12-28T20:27:38.489Z,98926.75
2023-12-28T20:32:41.986Z,98923.85
2023-12-28T20:37:45.377Z,98917.73
2023-12-28T20:42:49.883Z,98916.63
2023-12-28T20:47:53.090Z,98916.46
2023-12-28T20:52:55.643Z,98923.41
2023-12-28T20:57:58.077Z,98918.17
2023-12-28T21:03:02.716Z,98920.77
2023-12-28T21:08:06.015Z,98921.30
2023-12-28T21:13:08.344Z,98922.09
2023-12-28T21:18:19.626Z,98928.04
2023-12-28T21:23:30.397Z,98924.77
2023-12-28T21:28:32.451Z,98923.05
2023-12-28T21:33:35.236Z,98917.05
2023-12-28T21:38:38.493Z,98915.23
2023-12-28T21:43:40.994Z,98913.82
2023-12-28T21:48:43.017Z,98911.27
2023-12-28T21:53:45.444Z,98910.34
2023-12-28T21:58:48.581Z,98913.48
2023-12-28T22:03:51.182Z,98915.33
2023-12-28T22:08:58.513Z,98927.20
2023-12-28T22:14:01.322Z,98932.36
2023-12-28T22:19:03.508Z,98926.27
2023-12-28T22:24:06.041Z,98920.19
2023-12-28T22:29:08.006Z,98918.47
2023-12-28T22:34:10.174Z,98921.77
2023-12-28T22:39:12.375Z,98927.90
2023-12-28T22:44:15.079Z,98937.74
2023-12-28T22:49:17.426Z,98940.02
2023-12-28T22:54:19.478Z,98935.30
2023-12-28T22:59:21.397Z,98934.27
2023-12-28T23:04:23.343Z,98931.59
2023-12-28T23:09:26.452Z,98931.58
2023-12-28T23:14:28.466Z,98923.80
2023-12-28T23:19:30.524Z,98919.09
2023-12-28T23:24:32.592Z,98917.90
2023-12-28T23:29:34.662Z,98913.96
2023-12-28T23:34:36.874Z,98904.45
2023-12-28T23:39:39.041Z,98897.02
2023-12-28T23:44:41.089Z,98889.50
2023-12-28T23:49:43.145Z,98883.71
2023-12-28T23:54:45.217Z,98878.79
2023-12-28T23:59:47.259Z,98872.08
